sensor_id;sensor_type;location;lat;lon;timestamp;P1;durP1;ratioP1;P2;durP2;ratioP2
17235;SDS011;8734;59.272;17.780;2023-12-20T00:02:24;19.07;;;1.97;;
17235;SDS011;8734;59.272;17.780;2023-12-20T00:04:53;19.80;;;2.63;;
17235;SDS011;8734;59.272;17.780;2023-12-20T00:07:21;12.83;;;1.80;;
17235;SDS011;8734;59.272;17.780;2023-12-20T00:09:49;14.73;;;2.10;;
17235;SDS011;8734;59.272;17.780;2023-12-20T00:12:18;16.63;;;2.93;;
17235;SDS011;8734;59.272;17.780;2023-12-20T00:14:46;19.77;;;2.40;;
17235;SDS011;8734;59.272;17.780;2023-12-20T00:17:15;13.63;;;2.70;;
17235;SDS011;8734;59.272;17.780;2023-12-20T00:19:44;22.27;;;2.30;;
17235;SDS011;8734;59.272;17.780;2023-12-20T00:22:12;18.30;;;2.37;;
17235;SDS011;8734;59.272;17.780;2023-12-20T00:24:41;25.63;;;4.10;;
17235;SDS011;8734;59.272;17.780;2023-12-20T00:27:09;30.83;;;2.80;;
17235;SDS011;8734;59.272;17.780;2023-12-20T00:29:38;20.07;;;2.83;;
17235;SDS011;8734;59.272;17.780;2023-12-20T00:32:06;26.60;;;2.33;;
17235;SDS011;8734;59.272;17.780;2023-12-20T00:34:36;19.33;;;2.30;;
17235;SDS011;8734;59.272;17.780;2023-12-20T00:37:04;26.60;;;2.40;;
17235;SDS011;8734;59.272;17.780;2023-12-20T00:39:32;22.77;;;2.30;;
17235;SDS011;8734;59.272;17.780;2023-12-20T00:42:01;16.30;;;1.90;;
17235;SDS011;8734;59.272;17.780;2023-12-20T00:44:29;26.87;;;2.67;;
17235;SDS011;8734;59.272;17.780;2023-12-20T00:46:57;23.70;;;2.53;;
17235;SDS011;8734;59.272;17.780;2023-12-20T00:49:25;29.73;;;2.03;;
17235;SDS011;8734;59.272;17.780;2023-12-20T00:51:55;25.13;;;2.40;;
17235;SDS011;8734;59.272;17.780;2023-12-20T00:54:23;20.97;;;2.00;;
17235;SDS011;8734;59.272;17.780;2023-12-20T00:56:52;18.33;;;2.63;;
17235;SDS011;8734;59.272;17.780;2023-12-20T00:59:20;21.13;;;2.47;;
17235;SDS011;8734;59.272;17.780;2023-12-20T01:01:48;17.77;;;2.33;;
17235;SDS011;8734;59.272;17.780;2023-12-20T01:04:17;23.00;;;2.40;;
17235;SDS011;8734;59.272;17.780;2023-12-20T01:06:46;17.50;;;1.93;;
17235;SDS011;8734;59.272;17.780;2023-12-20T01:09:15;19.27;;;2.43;;
17235;SDS011;8734;59.272;17.780;2023-12-20T01:11:44;15.13;;;2.00;;
17235;SDS011;8734;59.272;17.780;2023-12-20T01:14:13;16.03;;;1.63;;
17235;SDS011;8734;59.272;17.780;2023-12-20T01:16:41;17.43;;;2.43;;
17235;SDS011;8734;59.272;17.780;2023-12-20T01:19:09;19.87;;;2.33;;
17235;SDS011;8734;59.272;17.780;2023-12-20T01:21:37;20.90;;;2.20;;
17235;SDS011;8734;59.272;17.780;2023-12-20T01:24:06;20.93;;;2.57;;
17235;SDS011;8734;59.272;17.780;2023-12-20T01:26:35;20.57;;;2.63;;
17235;SDS011;8734;59.272;17.780;2023-12-20T01:29:03;21.37;;;2.33;;
17235;SDS011;8734;59.272;17.780;2023-12-20T01:31:31;14.17;;;2.33;;
17235;SDS011;8734;59.272;17.780;2023-12-20T01:34:00;11.97;;;1.97;;
17235;SDS011;8734;59.272;17.780;2023-12-20T01:36:28;29.13;;;2.93;;
17235;SDS011;8734;59.272;17.780;2023-12-20T01:38:56;23.87;;;2.07;;
17235;SDS011;8734;59.272;17.780;2023-12-20T01:41:25;17.57;;;2.23;;
17235;SDS011;8734;59.272;17.780;2023-12-20T01:43:54;12.70;;;1.23;;
17235;SDS011;8734;59.272;17.780;2023-12-20T01:46:23;14.33;;;2.20;;
17235;SDS011;8734;59.272;17.780;2023-12-20T01:48:52;11.57;;;2.00;;
17235;SDS011;8734;59.272;17.780;2023-12-20T01:51:20;24.57;;;2.37;;
17235;SDS011;8734;59.272;17.780;2023-12-20T01:53:49;19.47;;;2.30;;
17235;SDS011;8734;59.272;17.780;2023-12-20T01:56:17;22.20;;;2.30;;
17235;SDS011;8734;59.272;17.780;2023-12-20T01:58:46;25.27;;;1.90;;
17235;SDS011;8734;59.272;17.780;2023-12-20T02:01:17;24.70;;;2.17;;
17235;SDS011;8734;59.272;17.780;2023-12-20T02:03:46;27.63;;;2.33;;
17235;SDS011;8734;59.272;17.780;2023-12-20T02:06:15;13.57;;;2.67;;
17235;SDS011;8734;59.272;17.780;2023-12-20T02:08:45;26.43;;;2.47;;
17235;SDS011;8734;59.272;17.780;2023-12-20T02:11:13;23.70;;;2.30;;
17235;SDS011;8734;59.272;17.780;2023-12-20T02:13:42;15.87;;;2.30;;
17235;SDS011;8734;59.272;17.780;2023-12-20T02:16:10;20.47;;;1.97;;
17235;SDS011;8734;59.272;17.780;2023-12-20T02:18:39;26.80;;;2.87;;
17235;SDS011;8734;59.272;17.780;2023-12-20T02:21:10;24.87;;;2.83;;
17235;SDS011;8734;59.272;17.780;2023-12-20T02:23:40;14.90;;;2.20;;
17235;SDS011;8734;59.272;17.780;2023-12-20T02:26:08;16.53;;;2.17;;
17235;SDS011;8734;59.272;17.780;2023-12-20T02:28:36;16.53;;;2.13;;
17235;SDS011;8734;59.272;17.780;2023-12-20T02:31:05;18.07;;;2.20;;
17235;SDS011;8734;59.272;17.780;2023-12-20T02:33:34;17.13;;;2.03;;
17235;SDS011;8734;59.272;17.780;2023-12-20T02:36:02;25.37;;;2.53;;
17235;SDS011;8734;59.272;17.780;2023-12-20T02:38:31;17.33;;;2.07;;
17235;SDS011;8734;59.272;17.780;2023-12-20T02:41:01;23.40;;;1.93;;
17235;SDS011;8734;59.272;17.780;2023-12-20T02:43:30;15.03;;;2.07;;
17235;SDS011;8734;59.272;17.780;2023-12-20T02:45:58;21.60;;;2.60;;
17235;SDS011;8734;59.272;17.780;2023-12-20T02:48:26;13.20;;;1.90;;
17235;SDS011;8734;59.272;17.780;2023-12-20T02:50:55;20.87;;;2.73;;
17235;SDS011;8734;59.272;17.780;2023-12-20T02:53:23;13.83;;;1.83;;
17235;SDS011;8734;59.272;17.780;2023-12-20T02:55:51;6.17;;;1.27;;
17235;SDS011;8734;59.272;17.780;2023-12-20T02:58:21;8.33;;;2.07;;
17235;SDS011;8734;59.272;17.780;2023-12-20T03:00:49;14.03;;;2.77;;
17235;SDS011;8734;59.272;17.780;2023-12-20T03:03:18;12.27;;;1.87;;
17235;SDS011;8734;59.272;17.780;2023-12-20T03:05:46;23.63;;;2.13;;
17235;SDS011;8734;59.272;17.780;2023-12-20T03:08:14;14.13;;;1.97;;
17235;SDS011;8734;59.272;17.780;2023-12-20T03:10:43;14.97;;;2.20;;
17235;SDS011;8734;59.272;17.780;2023-12-20T03:13:11;16.17;;;2.10;;
17235;SDS011;8734;59.272;17.780;2023-12-20T03:15:41;22.67;;;2.50;;
17235;SDS011;8734;59.272;17.780;2023-12-20T03:18:09;17.70;;;2.03;;
17235;SDS011;8734;59.272;17.780;2023-12-20T03:20:37;11.00;;;1.70;;
17235;SDS011;8734;59.272;17.780;2023-12-20T03:23:07;24.93;;;2.33;;
17235;SDS011;8734;59.272;17.780;2023-12-20T03:25:36;6.63;;;1.20;;
17235;SDS011;8734;59.272;17.780;2023-12-20T03:28:04;13.73;;;2.37;;
17235;SDS011;8734;59.272;17.780;2023-12-20T03:30:33;30.70;;;2.63;;
17235;SDS011;8734;59.272;17.780;2023-12-20T03:33:02;25.23;;;2.30;;
17235;SDS011;8734;59.272;17.780;2023-12-20T03:35:31;16.60;;;2.67;;
17235;SDS011;8734;59.272;17.780;2023-12-20T03:37:59;15.43;;;1.67;;
17235;SDS011;8734;59.272;17.780;2023-12-20T03:40:27;16.90;;;2.90;;
17235;SDS011;8734;59.272;17.780;2023-12-20T03:42:56;14.17;;;2.37;;
17235;SDS011;8734;59.272;17.780;2023-12-20T03:45:24;20.20;;;2.07;;
17235;SDS011;8734;59.272;17.780;2023-12-20T03:47:52;17.73;;;1.83;;
17235;SDS011;8734;59.272;17.780;2023-12-20T03:50:24;23.90;;;2.97;;
17235;SDS011;8734;59.272;17.780;2023-12-20T03:52:52;20.57;;;2.73;;
17235;SDS011;8734;59.272;17.780;2023-12-20T03:55:20;32.47;;;2.60;;
17235;SDS011;8734;59.272;17.780;2023-12-20T03:57:49;3.60;;;1.80;;
17235;SDS011;8734;59.272;17.780;2023-12-20T04:00:17;27.63;;;2.97;;
17235;SDS011;8734;59.272;17.780;2023-12-20T04:02:45;15.13;;;2.17;;
17235;SDS011;8734;59.272;17.780;2023-12-20T04:05:14;16.90;;;2.57;;
17235;SDS011;8734;59.272;17.780;2023-12-20T04:07:43;6.13;;;1.50;;
17235;SDS011;8734;59.272;17.780;2023-12-20T04:10:12;10.60;;;2.20;;
17235;SDS011;8734;59.272;17.780;2023-12-20T04:12:40;20.13;;;1.70;;
17235;SDS011;8734;59.272;17.780;2023-12-20T04:15:09;16.47;;;2.87;;
17235;SDS011;8734;59.272;17.780;2023-12-20T04:17:38;18.17;;;3.03;;
17235;SDS011;8734;59.272;17.780;2023-12-20T04:20:07;16.60;;;2.60;;
17235;SDS011;8734;59.272;17.780;2023-12-20T04:22:36;15.10;;;2.50;;
17235;SDS011;8734;59.272;17.780;2023-12-20T04:25:05;19.90;;;3.17;;
17235;SDS011;8734;59.272;17.780;2023-12-20T04:27:34;14.63;;;1.87;;
17235;SDS011;8734;59.272;17.780;2023-12-20T04:30:03;15.93;;;2.43;;
17235;SDS011;8734;59.272;17.780;2023-12-20T04:32:32;16.47;;;3.37;;
17235;SDS011;8734;59.272;17.780;2023-12-20T04:35:00;13.20;;;1.90;;
17235;SDS011;8734;59.272;17.780;2023-12-20T04:37:28;18.13;;;2.40;;
17235;SDS011;8734;59.272;17.780;2023-12-20T04:39:56;12.27;;;1.73;;
17235;SDS011;8734;59.272;17.780;2023-12-20T04:42:26;16.43;;;2.63;;
17235;SDS011;8734;59.272;17.780;2023-12-20T04:44:55;15.43;;;2.30;;
17235;SDS011;8734;59.272;17.780;2023-12-20T04:47:23;13.83;;;2.70;;
17235;SDS011;8734;59.272;17.780;2023-12-20T04:49:51;8.53;;;2.13;;
17235;SDS011;8734;59.272;17.780;2023-12-20T04:52:20;17.30;;;2.20;;
17235;SDS011;8734;59.272;17.780;2023-12-20T04:54:48;11.57;;;2.47;;
17235;SDS011;8734;59.272;17.780;2023-12-20T04:57:17;14.77;;;2.13;;
17235;SDS011;8734;59.272;17.780;2023-12-20T04:59:46;20.67;;;3.00;;
17235;SDS011;8734;59.272;17.780;2023-12-20T05:02:14;17.17;;;2.83;;
17235;SDS011;8734;59.272;17.780;2023-12-20T05:04:43;21.47;;;2.57;;
17235;SDS011;8734;59.272;17.780;2023-12-20T05:07:11;12.30;;;1.87;;
17235;SDS011;8734;59.272;17.780;2023-12-20T05:09:39;12.80;;;2.63;;
17235;SDS011;8734;59.272;17.780;2023-12-20T05:12:08;15.77;;;2.30;;
17235;SDS011;8734;59.272;17.780;2023-12-20T05:14:36;20.23;;;2.70;;
17235;SDS011;8734;59.272;17.780;2023-12-20T05:17:05;22.90;;;2.33;;
17235;SDS011;8734;59.272;17.780;2023-12-20T05:19:34;21.53;;;2.20;;
17235;SDS011;8734;59.272;17.780;2023-12-20T05:22:02;22.47;;;2.27;;
17235;SDS011;8734;59.272;17.780;2023-12-20T05:24:31;24.80;;;2.93;;
17235;SDS011;8734;59.272;17.780;2023-12-20T05:26:59;18.93;;;2.23;;
17235;SDS011;8734;59.272;17.780;2023-12-20T05:29:28;5.17;;;1.90;;
17235;SDS011;8734;59.272;17.780;2023-12-20T05:31:57;25.30;;;2.30;;
17235;SDS011;8734;59.272;17.780;2023-12-20T05:34:27;27.10;;;2.40;;
17235;SDS011;8734;59.272;17.780;2023-12-20T05:36:55;20.63;;;2.67;;
17235;SDS011;8734;59.272;17.780;2023-12-20T05:39:25;20.60;;;2.33;;
17235;SDS011;8734;59.272;17.780;2023-12-20T05:41:53;18.87;;;2.37;;
17235;SDS011;8734;59.272;17.780;2023-12-20T05:44:22;18.53;;;4.00;;
17235;SDS011;8734;59.272;17.780;2023-12-20T05:46:50;39.63;;;3.50;;
17235;SDS011;8734;59.272;17.780;2023-12-20T05:49:18;39.57;;;4.20;;
17235;SDS011;8734;59.272;17.780;2023-12-20T05:51:48;17.03;;;3.13;;
17235;SDS011;8734;59.272;17.780;2023-12-20T05:54:16;30.37;;;3.00;;
17235;SDS011;8734;59.272;17.780;2023-12-20T05:56:44;31.97;;;3.13;;
17235;SDS011;8734;59.272;17.780;2023-12-20T05:59:12;11.30;;;1.93;;
17235;SDS011;8734;59.272;17.780;2023-12-20T06:01:41;23.53;;;2.83;;
17235;SDS011;8734;59.272;17.780;2023-12-20T06:04:09;27.13;;;2.50;;
17235;SDS011;8734;59.272;17.780;2023-12-20T06:06:40;25.87;;;2.47;;
17235;SDS011;8734;59.272;17.780;2023-12-20T06:09:10;27.33;;;2.97;;
17235;SDS011;8734;59.272;17.780;2023-12-20T06:11:38;23.43;;;3.23;;
17235;SDS011;8734;59.272;17.780;2023-12-20T06:14:07;25.07;;;2.70;;
17235;SDS011;8734;59.272;17.780;2023-12-20T06:16:35;33.60;;;2.87;;
17235;SDS011;8734;59.272;17.780;2023-12-20T06:19:03;25.10;;;3.87;;
17235;SDS011;8734;59.272;17.780;2023-12-20T06:21:32;33.63;;;3.63;;
17235;SDS011;8734;59.272;17.780;2023-12-20T06:24:00;36.47;;;3.60;;
17235;SDS011;8734;59.272;17.780;2023-12-20T06:26:29;29.93;;;3.60;;
17235;SDS011;8734;59.272;17.780;2023-12-20T06:28:57;20.93;;;3.50;;
17235;SDS011;8734;59.272;17.780;2023-12-20T06:31:26;36.10;;;3.23;;
17235;SDS011;8734;59.272;17.780;2023-12-20T06:33:54;27.43;;;4.03;;
17235;SDS011;8734;59.272;17.780;2023-12-20T06:36:24;25.23;;;3.13;;
17235;SDS011;8734;59.272;17.780;2023-12-20T06:38:52;31.60;;;3.83;;
17235;SDS011;8734;59.272;17.780;2023-12-20T06:41:23;18.03;;;3.80;;
17235;SDS011;8734;59.272;17.780;2023-12-20T06:43:53;27.20;;;3.87;;
17235;SDS011;8734;59.272;17.780;2023-12-20T06:46:21;18.80;;;3.67;;
17235;SDS011;8734;59.272;17.780;2023-12-20T06:48:49;25.83;;;4.87;;
17235;SDS011;8734;59.272;17.780;2023-12-20T06:51:18;26.33;;;5.43;;
17235;SDS011;8734;59.272;17.780;2023-12-20T06:53:47;26.83;;;5.37;;
17235;SDS011;8734;59.272;17.780;2023-12-20T06:56:15;31.10;;;5.67;;
17235;SDS011;8734;59.272;17.780;2023-12-20T06:58:45;27.50;;;4.40;;
17235;SDS011;8734;59.272;17.780;2023-12-20T07:01:15;30.40;;;4.63;;
17235;SDS011;8734;59.272;17.780;2023-12-20T07:03:44;33.30;;;4.77;;
17235;SDS011;8734;59.272;17.780;2023-12-20T07:06:12;15.83;;;3.80;;
17235;SDS011;8734;59.272;17.780;2023-12-20T07:08:43;17.53;;;3.60;;
17235;SDS011;8734;59.272;17.780;2023-12-20T07:11:11;34.60;;;4.33;;
17235;SDS011;8734;59.272;17.780;2023-12-20T07:13:39;17.43;;;3.23;;
17235;SDS011;8734;59.272;17.780;2023-12-20T07:16:08;25.40;;;3.50;;
17235;SDS011;8734;59.272;17.780;2023-12-20T07:18:38;18.77;;;2.90;;
17235;SDS011;8734;59.272;17.780;2023-12-20T07:21:06;37.47;;;3.70;;
17235;SDS011;8734;59.272;17.780;2023-12-20T07:23:35;15.73;;;2.83;;
17235;SDS011;8734;59.272;17.780;2023-12-20T07:26:03;13.20;;;3.53;;
17235;SDS011;8734;59.272;17.780;2023-12-20T07:28:31;9.57;;;3.47;;
17235;SDS011;8734;59.272;17.780;2023-12-20T07:31:00;13.47;;;2.83;;
17235;SDS011;8734;59.272;17.780;2023-12-20T07:33:28;16.33;;;3.10;;
17235;SDS011;8734;59.272;17.780;2023-12-20T07:36:06;27.57;;;3.63;;
17235;SDS011;8734;59.272;17.780;2023-12-20T07:38:35;22.17;;;3.07;;
17235;SDS011;8734;59.272;17.780;2023-12-20T07:41:03;15.93;;;3.20;;
17235;SDS011;8734;59.272;17.780;2023-12-20T07:43:31;18.07;;;4.60;;
17235;SDS011;8734;59.272;17.780;2023-12-20T07:46:03;16.10;;;2.40;;
17235;SDS011;8734;59.272;17.780;2023-12-20T07:48:33;15.57;;;2.80;;
17235;SDS011;8734;59.272;17.780;2023-12-20T07:51:02;14.77;;;2.80;;
17235;SDS011;8734;59.272;17.780;2023-12-20T07:53:33;26.77;;;3.47;;
17235;SDS011;8734;59.272;17.780;2023-12-20T07:56:02;21.80;;;3.53;;
17235;SDS011;8734;59.272;17.780;2023-12-20T07:58:40;27.70;;;2.80;;
17235;SDS011;8734;59.272;17.780;2023-12-20T08:01:18;15.83;;;3.33;;
17235;SDS011;8734;59.272;17.780;2023-12-20T08:03:48;33.20;;;3.07;;
17235;SDS011;8734;59.272;17.780;2023-12-20T08:06:17;11.10;;;2.67;;
17235;SDS011;8734;59.272;17.780;2023-12-20T08:08:47;11.93;;;3.00;;
17235;SDS011;8734;59.272;17.780;2023-12-20T08:11:27;19.03;;;3.27;;
17235;SDS011;8734;59.272;17.780;2023-12-20T08:13:55;14.93;;;2.57;;
17235;SDS011;8734;59.272;17.780;2023-12-20T08:16:24;19.57;;;3.20;;
17235;SDS011;8734;59.272;17.780;2023-12-20T08:18:53;30.87;;;3.33;;
17235;SDS011;8734;59.272;17.780;2023-12-20T08:21:21;27.60;;;3.53;;
17235;SDS011;8734;59.272;17.780;2023-12-20T08:23:51;13.87;;;3.00;;
17235;SDS011;8734;59.272;17.780;2023-12-20T08:26:19;18.17;;;2.93;;
17235;SDS011;8734;59.272;17.780;2023-12-20T08:28:49;16.77;;;3.23;;
17235;SDS011;8734;59.272;17.780;2023-12-20T08:31:17;23.40;;;3.57;;
17235;SDS011;8734;59.272;17.780;2023-12-20T08:33:47;12.70;;;3.53;;
17235;SDS011;8734;59.272;17.780;2023-12-20T08:36:16;23.80;;;3.30;;
17235;SDS011;8734;59.272;17.780;2023-12-20T08:38:45;28.67;;;3.40;;
17235;SDS011;8734;59.272;17.780;2023-12-20T08:41:15;16.70;;;2.90;;
17235;SDS011;8734;59.272;17.780;2023-12-20T08:43:43;29.53;;;3.30;;
17235;SDS011;8734;59.272;17.780;2023-12-20T08:46:11;17.50;;;3.23;;
17235;SDS011;8734;59.272;17.780;2023-12-20T08:48:41;17.63;;;2.53;;
17235;SDS011;8734;59.272;17.780;2023-12-20T08:51:10;34.83;;;4.17;;
17235;SDS011;8734;59.272;17.780;2023-12-20T08:53:38;24.90;;;3.33;;
17235;SDS011;8734;59.272;17.780;2023-12-20T08:56:07;14.47;;;3.07;;
17235;SDS011;8734;59.272;17.780;2023-12-20T08:58:37;20.80;;;2.63;;
17235;SDS011;8734;59.272;17.780;2023-12-20T09:01:05;18.57;;;3.07;;
17235;SDS011;8734;59.272;17.780;2023-12-20T09:03:34;16.80;;;3.43;;
17235;SDS011;8734;59.272;17.780;2023-12-20T09:06:02;10.23;;;2.27;;
17235;SDS011;8734;59.272;17.780;2023-12-20T09:08:31;17.20;;;2.80;;
17235;SDS011;8734;59.272;17.780;2023-12-20T09:11:00;16.57;;;3.47;;
17235;SDS011;8734;59.272;17.780;2023-12-20T09:13:29;22.93;;;3.13;;
17235;SDS011;8734;59.272;17.780;2023-12-20T09:15:59;19.47;;;2.90;;
17235;SDS011;8734;59.272;17.780;2023-12-20T09:18:28;18.30;;;3.33;;
17235;SDS011;8734;59.272;17.780;2023-12-20T09:20:59;24.00;;;3.30;;
17235;SDS011;8734;59.272;17.780;2023-12-20T09:23:28;20.50;;;4.40;;
17235;SDS011;8734;59.272;17.780;2023-12-20T09:25:56;13.27;;;2.90;;
17235;SDS011;8734;59.272;17.780;2023-12-20T09:28:24;22.07;;;3.33;;
17235;SDS011;8734;59.272;17.780;2023-12-20T09:30:53;16.37;;;3.10;;
17235;SDS011;8734;59.272;17.780;2023-12-20T09:33:23;15.33;;;3.17;;
17235;SDS011;8734;59.272;17.780;2023-12-20T09:35:51;21.77;;;3.50;;
17235;SDS011;8734;59.272;17.780;2023-12-20T09:38:20;23.77;;;3.07;;
17235;SDS011;8734;59.272;17.780;2023-12-20T09:40:49;28.43;;;3.37;;
17235;SDS011;8734;59.272;17.780;2023-12-20T09:43:18;17.83;;;2.80;;
17235;SDS011;8734;59.272;17.780;2023-12-20T09:45:48;10.03;;;1.70;;
17235;SDS011;8734;59.272;17.780;2023-12-20T09:48:17;22.90;;;2.90;;
17235;SDS011;8734;59.272;17.780;2023-12-20T09:50:48;16.97;;;2.63;;
17235;SDS011;8734;59.272;17.780;2023-12-20T09:53:19;17.20;;;3.13;;
17235;SDS011;8734;59.272;17.780;2023-12-20T09:55:50;26.40;;;2.63;;
17235;SDS011;8734;59.272;17.780;2023-12-20T09:58:19;16.13;;;2.20;;
17235;SDS011;8734;59.272;17.780;2023-12-20T10:00:47;12.53;;;2.83;;
17235;SDS011;8734;59.272;17.780;2023-12-20T10:03:16;15.47;;;2.80;;
17235;SDS011;8734;59.272;17.780;2023-12-20T10:05:48;18.17;;;2.40;;
17235;SDS011;8734;59.272;17.780;2023-12-20T10:08:20;13.90;;;2.47;;
17235;SDS011;8734;59.272;17.780;2023-12-20T10:10:49;17.43;;;2.53;;
17235;SDS011;8734;59.272;17.780;2023-12-20T10:13:18;12.67;;;2.20;;
17235;SDS011;8734;59.272;17.780;2023-12-20T10:15:46;16.83;;;2.33;;
17235;SDS011;8734;59.272;17.780;2023-12-20T10:18:14;16.37;;;2.30;;
17235;SDS011;8734;59.272;17.780;2023-12-20T10:20:43;14.67;;;2.10;;
17235;SDS011;8734;59.272;17.780;2023-12-20T10:23:15;22.73;;;2.87;;
17235;SDS011;8734;59.272;17.780;2023-12-20T10:25:49;17.50;;;2.40;;
17235;SDS011;8734;59.272;17.780;2023-12-20T10:28:24;17.67;;;2.70;;
17235;SDS011;8734;59.272;17.780;2023-12-20T10:30:54;22.80;;;2.37;;
17235;SDS011;8734;59.272;17.780;2023-12-20T10:33:24;13.33;;;2.00;;
17235;SDS011;8734;59.272;17.780;2023-12-20T10:35:53;17.50;;;2.33;;
17235;SDS011;8734;59.272;17.780;2023-12-20T10:38:23;17.80;;;2.23;;
17235;SDS011;8734;59.272;17.780;2023-12-20T10:40:52;21.17;;;3.23;;
17235;SDS011;8734;59.272;17.780;2023-12-20T10:43:24;19.17;;;2.23;;
17235;SDS011;8734;59.272;17.780;2023-12-20T10:45:56;14.10;;;2.10;;
17235;SDS011;8734;59.272;17.780;2023-12-20T10:48:25;16.43;;;1.93;;
17235;SDS011;8734;59.272;17.780;2023-12-20T10:50:57;19.33;;;2.33;;
17235;SDS011;8734;59.272;17.780;2023-12-20T10:53:27;10.67;;;2.10;;
17235;SDS011;8734;59.272;17.780;2023-12-20T10:55:55;22.47;;;2.37;;
17235;SDS011;8734;59.272;17.780;2023-12-20T10:58:26;14.83;;;1.87;;
17235;SDS011;8734;59.272;17.780;2023-12-20T11:01:01;16.43;;;2.20;;
17235;SDS011;8734;59.272;17.780;2023-12-20T11:03:31;18.33;;;1.90;;
17235;SDS011;8734;59.272;17.780;2023-12-20T11:06:03;21.23;;;2.13;;
17235;SDS011;8734;59.272;17.780;2023-12-20T11:08:44;10.37;;;2.13;;
17235;SDS011;8734;59.272;17.780;2023-12-20T11:11:19;10.07;;;1.83;;
17235;SDS011;8734;59.272;17.780;2023-12-20T11:13:54;9.70;;;1.70;;
17235;SDS011;8734;59.272;17.780;2023-12-20T11:16:25;7.37;;;1.80;;
17235;SDS011;8734;59.272;17.780;2023-12-20T11:19:07;9.93;;;1.80;;
17235;SDS011;8734;59.272;17.780;2023-12-20T11:21:35;9.53;;;1.67;;
17235;SDS011;8734;59.272;17.780;2023-12-20T11:24:05;9.10;;;2.30;;
17235;SDS011;8734;59.272;17.780;2023-12-20T11:26:33;8.33;;;1.53;;
17235;SDS011;8734;59.272;17.780;2023-12-20T11:32:02;10.33;;;2.00;;
17235;SDS011;8734;59.272;17.780;2023-12-20T11:34:31;5.63;;;1.47;;
17235;SDS011;8734;59.272;17.780;2023-12-20T11:37:02;9.23;;;1.60;;
17235;SDS011;8734;59.272;17.780;2023-12-20T11:39:32;11.23;;;1.33;;
17235;SDS011;8734;59.272;17.780;2023-12-20T11:42:03;9.93;;;1.20;;
17235;SDS011;8734;59.272;17.780;2023-12-20T11:44:32;6.43;;;1.40;;
17235;SDS011;8734;59.272;17.780;2023-12-20T11:47:01;6.93;;;1.27;;
17235;SDS011;8734;59.272;17.780;2023-12-20T11:49:29;10.87;;;2.13;;
17235;SDS011;8734;59.272;17.780;2023-12-20T11:51:57;5.57;;;0.83;;
17235;SDS011;8734;59.272;17.780;2023-12-20T11:54:26;4.70;;;1.20;;
17235;SDS011;8734;59.272;17.780;2023-12-20T11:56:56;3.03;;;1.07;;
17235;SDS011;8734;59.272;17.780;2023-12-20T11:59:24;6.43;;;1.47;;
17235;SDS011;8734;59.272;17.780;2023-12-20T12:01:52;4.97;;;1.20;;
17235;SDS011;8734;59.272;17.780;2023-12-20T12:04:23;7.17;;;1.03;;
17235;SDS011;8734;59.272;17.780;2023-12-20T12:06:51;12.03;;;1.20;;
17235;SDS011;8734;59.272;17.780;2023-12-20T12:09:20;7.77;;;1.70;;
17235;SDS011;8734;59.272;17.780;2023-12-20T12:11:48;3.53;;;1.40;;
17235;SDS011;8734;59.272;17.780;2023-12-20T12:14:18;2.33;;;0.80;;
17235;SDS011;8734;59.272;17.780;2023-12-20T12:16:47;1.80;;;0.70;;
17235;SDS011;8734;59.272;17.780;2023-12-20T12:19:19;8.33;;;1.20;;
17235;SDS011;8734;59.272;17.780;2023-12-20T12:21:48;11.83;;;0.97;;
17235;SDS011;8734;59.272;17.780;2023-12-20T12:24:20;4.33;;;1.13;;
17235;SDS011;8734;59.272;17.780;2023-12-20T12:26:51;4.40;;;1.00;;
17235;SDS011;8734;59.272;17.780;2023-12-20T12:29:21;5.97;;;1.13;;
17235;SDS011;8734;59.272;17.780;2023-12-20T12:31:51;3.53;;;1.00;;
17235;SDS011;8734;59.272;17.780;2023-12-20T12:34:19;3.33;;;0.93;;
17235;SDS011;8734;59.272;17.780;2023-12-20T12:36:48;2.60;;;0.70;;
17235;SDS011;8734;59.272;17.780;2023-12-20T12:41:45;4.30;;;1.03;;
17235;SDS011;8734;59.272;17.780;2023-12-20T12:44:14;2.87;;;0.97;;
17235;SDS011;8734;59.272;17.780;2023-12-20T12:46:45;7.43;;;0.87;;
17235;SDS011;8734;59.272;17.780;2023-12-20T12:49:16;5.57;;;0.90;;
17235;SDS011;8734;59.272;17.780;2023-12-20T12:51:44;5.53;;;1.17;;
17235;SDS011;8734;59.272;17.780;2023-12-20T12:54:13;3.47;;;1.07;;
17235;SDS011;8734;59.272;17.780;2023-12-20T12:56:42;8.10;;;1.20;;
17235;SDS011;8734;59.272;17.780;2023-12-20T12:59:11;8.93;;;1.30;;
17235;SDS011;8734;59.272;17.780;2023-12-20T13:01:39;5.90;;;1.50;;
17235;SDS011;8734;59.272;17.780;2023-12-20T13:04:09;6.47;;;1.40;;
17235;SDS011;8734;59.272;17.780;2023-12-20T13:06:38;6.53;;;1.47;;
17235;SDS011;8734;59.272;17.780;2023-12-20T13:09:07;9.53;;;1.33;;
17235;SDS011;8734;59.272;17.780;2023-12-20T13:11:37;6.80;;;1.60;;
17235;SDS011;8734;59.272;17.780;2023-12-20T13:14:05;5.23;;;1.40;;
17235;SDS011;8734;59.272;17.780;2023-12-20T13:16:37;10.60;;;1.40;;
17235;SDS011;8734;59.272;17.780;2023-12-20T13:19:05;12.43;;;1.83;;
17235;SDS011;8734;59.272;17.780;2023-12-20T13:21:35;7.10;;;1.47;;
17235;SDS011;8734;59.272;17.780;2023-12-20T13:24:04;3.77;;;1.20;;
17235;SDS011;8734;59.272;17.780;2023-12-20T13:26:33;8.47;;;1.60;;
17235;SDS011;8734;59.272;17.780;2023-12-20T13:29:01;13.63;;;1.47;;
17235;SDS011;8734;59.272;17.780;2023-12-20T13:31:29;12.27;;;1.50;;
17235;SDS011;8734;59.272;17.780;2023-12-20T13:33:58;4.40;;;2.10;;
17235;SDS011;8734;59.272;17.780;2023-12-20T13:36:27;10.10;;;2.87;;
17235;SDS011;8734;59.272;17.780;2023-12-20T13:38:56;10.57;;;1.80;;
17235;SDS011;8734;59.272;17.780;2023-12-20T13:41:24;9.93;;;1.50;;
17235;SDS011;8734;59.272;17.780;2023-12-20T13:43:53;15.87;;;1.93;;
17235;SDS011;8734;59.272;17.780;2023-12-20T13:46:21;8.07;;;1.70;;
17235;SDS011;8734;59.272;17.780;2023-12-20T13:48:50;14.77;;;1.50;;
17235;SDS011;8734;59.272;17.780;2023-12-20T13:51:18;7.80;;;1.93;;
17235;SDS011;8734;59.272;17.780;2023-12-20T13:53:47;8.70;;;1.73;;
17235;SDS011;8734;59.272;17.780;2023-12-20T13:56:17;9.60;;;2.13;;
17235;SDS011;8734;59.272;17.780;2023-12-20T13:58:46;8.87;;;2.00;;
17235;SDS011;8734;59.272;17.780;2023-12-20T14:01:15;27.17;;;2.47;;
17235;SDS011;8734;59.272;17.780;2023-12-20T14:03:43;13.03;;;2.07;;
17235;SDS011;8734;59.272;17.780;2023-12-20T14:06:11;20.27;;;2.20;;
17235;SDS011;8734;59.272;17.780;2023-12-20T14:08:41;7.47;;;2.13;;
17235;SDS011;8734;59.272;17.780;2023-12-20T14:11:09;14.53;;;2.30;;
17235;SDS011;8734;59.272;17.780;2023-12-20T14:13:40;9.97;;;2.00;;
17235;SDS011;8734;59.272;17.780;2023-12-20T14:16:08;12.10;;;1.80;;
17235;SDS011;8734;59.272;17.780;2023-12-20T14:18:37;23.03;;;2.47;;
17235;SDS011;8734;59.272;17.780;2023-12-20T14:21:06;10.37;;;2.10;;
17235;SDS011;8734;59.272;17.780;2023-12-20T14:23:34;13.57;;;2.30;;
17235;SDS011;8734;59.272;17.780;2023-12-20T14:26:03;9.90;;;2.10;;
17235;SDS011;8734;59.272;17.780;2023-12-20T14:28:31;8.23;;;2.10;;
17235;SDS011;8734;59.272;17.780;2023-12-20T14:31:01;16.33;;;2.43;;
17235;SDS011;8734;59.272;17.780;2023-12-20T14:33:29;17.33;;;2.50;;
17235;SDS011;8734;59.272;17.780;2023-12-20T14:35:58;9.47;;;2.27;;
17235;SDS011;8734;59.272;17.780;2023-12-20T14:38:26;10.23;;;3.17;;
17235;SDS011;8734;59.272;17.780;2023-12-20T14:40:54;16.87;;;2.27;;
17235;SDS011;8734;59.272;17.780;2023-12-20T14:43:22;12.17;;;2.60;;
17235;SDS011;8734;59.272;17.780;2023-12-20T14:45:51;16.40;;;2.30;;
17235;SDS011;8734;59.272;17.780;2023-12-20T14:48:21;9.07;;;2.50;;
17235;SDS011;8734;59.272;17.780;2023-12-20T14:50:48;7.83;;;2.27;;
17235;SDS011;8734;59.272;17.780;2023-12-20T14:53:17;11.43;;;2.43;;